Aeroporto :
LOGIN :

Iscrizione | Disclaimer

   EN    FR    IT 

 










Sommario :    VFR   VFR Marginale   IFR   IFR Intensivo   IFR Molto Intensivo
Visibilità : 
Base nubi : 
>= 8 km
>= 3000ft
5 / 8 km
1000 / 3000 ft
1500m / 5 km
500 / 1000 ft
800 / 1500m
200 / 500 ft
< 800m
< 200 ft
Simboli :   Temporali  Nebbia  Neve Forte  Precipitazioni Forti  Vento > 20 kt
SIGMETs :   Varie  Temporali  Ghiacco  Turbolenza  Onda orograficha  Ceneri Vulcaniche






- Altitudine del aeroporto : 20 ft
- Codice IATA : TIV


LYTV - Tivat - Montenegro

ULTIMO METAR :
  • 301030Z 27005KT 230V320 9999 FEW060 19/05 Q1011 NOSIG

METARs OBSOLETI :
  • 301000Z VRB03KT 9999 FEW060 18/06 Q1011 NOSIG
  • 300930Z 23004KT 180V280 9999 FEW060 17/07 Q1012 NOSIG
  • 300900Z 30004KT 260V350 9999 FEW060 17/08 Q1012 NOSIG
  • 300830Z VRB02KT 9999 FEW060 17/07 Q1012 NOSIG
  • 300800Z VRB02KT CAVOK 16/08 Q1012 NOSIG
  • 300730Z VRB02KT CAVOK 14/08 Q1012 NOSIG

TAF TAF LYTV
Valido dal 30 a 06 ore il 31 a 06 ore UTC


300500Z 3006/3106 32008KT 9999 FEW050 TX16/3012Z TN08/3103Z
BECMG 3016/3018 02014KT
TEMPO 3022/3106 02015G25KT



MetMap, La meteo Aeronautica in un colpo d'occhio ! - Copyright ORBIFLY Dicembre 2007 - Disclaimer

ORBIFLY MET'MAP TEAM :

Programmazione e sviluppo : Alexandra Zaïnal
Concezione : Baudouin d'Aumeries
Aiuto per la programmazione : Marc-Olivier Méhu
Supporto tecnico e logistico : Manuel Goepfert
Aiuto per la traduzione : Arnaldo La Scala

Contatto : metmap@orbifly.com




FONTI E CREDITI :

   NOAA